Time;durP1;ratioP1;P1;durP2;ratioP2;P2;SDS_P1;SDS_P2;PMS_P1;PMS_P2;Temp;Humidity;BMP_temperature;BMP_pressure;BME280_temperature;BME280_humidity;BME280_pressure;Samples;Min_cycle;Max_cycle;Signal;HPM_P1;HPM_P2
2022/04/13 00:02:20;;;;;;;12.43;6.95;;;;;;;7.77;77.36;100693.88;5024133;23;19928;-82
2022/04/13 00:04:46;;;;;;;9.35;5.88;;;;;;;7.77;77.28;100693.88;5032024;28;20511;-81
2022/04/13 00:07:11;;;;;;;11.20;5.88;;;;;;;7.75;77.40;100680.75;5042326;28;20073;-80
2022/04/13 00:09:37;;;;;;;16.80;6.13;;;;;;;7.72;77.49;100691.66;5031845;28;20765;-81
2022/04/13 00:12:03;;;;;;;8.27;5.73;;;;;;;7.75;77.39;100682.56;5031262;28;20291;-80
2022/04/13 00:14:29;;;;;;;16.25;6.22;;;;;;;7.66;77.73;100680.81;5048853;28;20065;-81
2022/04/13 00:16:55;;;;;;;10.25;5.40;;;;;;;7.72;77.20;100673.06;5047708;28;20013;-80
2022/04/13 00:19:21;;;;;;;26.47;8.60;;;;;;;7.69;77.24;100667.22;5048565;28;20090;-83
2022/04/13 00:21:47;;;;;;;11.82;5.53;;;;;;;7.70;76.78;100658.25;5048285;28;20403;-85
2022/04/13 00:24:13;;;;;;;12.65;5.97;;;;;;;7.73;76.85;100658.81;5031722;28;20045;-80
2022/04/13 00:26:39;;;;;;;11.93;5.10;;;;;;;7.59;77.27;100657.47;5031390;28;20485;-81
2022/04/13 00:29:05;;;;;;;9.80;6.15;;;;;;;7.66;76.57;100649.75;5031563;28;20280;-82
2022/04/13 00:31:30;;;;;;;10.02;5.93;;;;;;;7.60;76.96;100640.53;5031110;28;20082;-83
2022/04/13 00:33:55;;;;;;;9.27;5.63;;;;;;;7.58;76.96;100649.63;5048309;28;20044;-81
2022/04/13 00:36:21;;;;;;;13.23;6.53;;;;;;;7.60;76.95;100645.84;5031851;28;20032;-85
2022/04/13 00:38:46;;;;;;;10.70;5.77;;;;;;;7.64;76.62;100634.94;5031737;28;20841;-82
2022/04/13 00:41:12;;;;;;;11.30;5.83;;;;;;;7.59;76.78;100636.19;5031028;28;20033;-83
2022/04/13 00:43:37;;;;;;;11.05;6.07;;;;;;;7.60;76.27;100629.88;5031290;28;20040;-79
2022/04/13 00:46:03;;;;;;;9.60;5.47;;;;;;;7.60;76.49;100619.25;5031413;28;20029;-79
2022/04/13 00:48:36;;;;;;;10.57;6.00;;;;;;;7.66;76.42;100638.28;5030343;28;20046;-82
2022/04/13 00:51:02;;;;;;;10.25;5.50;;;;;;;7.67;75.70;100610.72;5028974;28;20480;-84
2022/04/13 00:53:30;;;;;;;13.63;6.95;;;;;;;7.63;75.83;100601.34;5031740;28;20401;-79
2022/04/13 00:56:00;;;;;;;11.68;6.63;;;;;;;7.55;76.26;100616.22;5031375;28;20389;-83
2022/04/13 00:58:32;;;;;;;9.73;5.60;;;;;;;7.55;75.88;100602.94;5031400;28;20029;-82
2022/04/13 01:01:01;;;;;;;8.60;5.70;;;;;;;7.49;76.92;100619.47;5030529;28;20068;-79
2022/04/13 01:03:27;;;;;;;10.07;5.28;;;;;;;7.45;77.22;100620.75;5031235;28;20027;-81
2022/04/13 01:05:53;;;;;;;8.50;5.78;;;;;;;7.47;77.68;100641.81;5047248;28;20040;-79
2022/04/13 01:08:19;;;;;;;;;;;;;;;7.50;76.94;100622.97;5047695;28;20132;-82
2022/04/13 01:10:47;;;;;;;8.98;5.70;;;;;;;7.58;76.28;100617.75;5030773;28;20343;-80
2022/04/13 01:13:14;;;;;;;10.48;5.47;;;;;;;7.55;75.73;100592.31;5030626;28;20492;-82
2022/04/13 01:15:40;;;;;;;9.63;6.13;;;;;;;7.49;76.15;100587.59;5029227;28;20045;-84
2022/04/13 01:18:06;;;;;;;9.25;5.68;;;;;;;7.47;76.66;100605.50;5031982;28;20031;-84
2022/04/13 01:20:34;;;;;;;13.15;5.22;;;;;;;7.46;77.06;100614.44;5049983;28;20354;-84
2022/04/13 01:23:00;;;;;;;11.95;5.68;;;;;;;7.54;77.31;100629.66;5049903;28;20104;-83
2022/04/13 01:25:26;;;;;;;11.30;5.55;;;;;;;7.39;77.18;100608.84;5050542;28;20501;-84
2022/04/13 01:27:52;;;;;;;12.55;7.13;;;;;;;7.39;76.78;100602.72;5049935;28;20017;-83
2022/04/13 01:30:17;;;;;;;20.87;6.73;;;;;;;7.38;76.90;100606.38;5049846;28;20044;-87
2022/04/13 01:32:43;;;;;;;9.95;6.22;;;;;;;7.32;76.97;100601.63;5050116;28;20071;-85
2022/04/13 01:35:08;;;;;;;9.27;6.60;;;;;;;7.27;77.42;100620.66;5051253;28;20033;-84
2022/04/13 01:37:34;;;;;;;8.67;5.20;;;;;;;7.32;77.67;100622.88;5033498;28;20021;-84
2022/04/13 01:40:00;;;;;;;7.18;5.13;;;;;;;7.32;78.04;100629.00;5032996;28;20087;-84
2022/04/13 01:42:26;;;;;;;;;;;;;;;7.30;78.07;100619.50;5032464;28;20090;-84
2022/04/13 01:44:51;;;;;;;;;;;;;;;7.28;78.03;100621.47;5049959;28;20680;-85
2022/04/13 01:47:16;;;;;;;15.30;6.13;;;;;;;7.27;77.81;100619.81;5033140;28;19912;-85
2022/04/13 01:49:42;;;;;;;9.70;6.20;;;;;;;7.21;78.36;100631.84;5033544;28;20481;-85
2022/04/13 01:52:09;;;;;;;9.02;5.97;;;;;;;7.14;78.41;100631.59;5033006;28;20060;-86
2022/04/13 01:54:35;;;;;;;14.98;6.80;;;;;;;7.22;78.88;100651.28;5033487;28;20029;-85
2022/04/13 01:57:01;;;;;;;10.30;6.22;;;;;;;7.17;78.39;100641.09;5033552;28;20619;-84
2022/04/13 01:59:27;;;;;;;14.25;7.07;;;;;;;7.16;78.52;100645.56;5053411;28;20036;-84
2022/04/13 02:01:52;;;;;;;12.93;6.70;;;;;;;7.14;78.87;100658.13;5036498;28;20040;-86
2022/04/13 02:04:19;;;;;;;10.87;6.37;;;;;;;7.05;79.16;100643.06;5037307;28;20511;-84
2022/04/13 02:06:45;;;;;;;11.05;6.15;;;;;;;7.08;79.00;100648.06;5037475;28;20028;-84
2022/04/13 02:09:11;;;;;;;12.77;6.90;;;;;;;7.05;79.46;100656.34;5053308;28;20041;-84
2022/04/13 02:11:37;;;;;;;11.15;7.13;;;;;;;6.94;80.25;100664.44;5036273;28;20037;-84
2022/04/13 02:14:02;;;;;;;9.65;5.68;;;;;;;6.96;80.65;100671.28;5037104;28;20104;-87
2022/04/13 02:16:27;;;;;;;12.10;6.27;;;;;;;6.87;81.11;100674.78;5053802;28;20028;-85
2022/04/13 02:18:53;;;;;;;12.57;6.47;;;;;;;6.88;81.39;100681.78;5035660;28;20076;-85
2022/04/13 02:21:18;;;;;;;13.87;6.80;;;;;;;6.80;82.07;100686.09;5036254;28;20050;-85
2022/04/13 02:23:43;;;;;;;14.03;7.43;;;;;;;6.81;82.44;100701.03;5035369;28;20033;-84
2022/04/13 02:26:09;;;;;;;13.13;7.03;;;;;;;6.78;82.25;100693.34;5036027;28;20032;-84
2022/04/13 02:28:34;;;;;;;10.10;6.03;;;;;;;6.86;82.31;100701.44;5053139;28;20119;-85
2022/04/13 02:30:59;;;;;;;9.00;6.63;;;;;;;6.79;82.22;100679.09;5036121;28;20106;-85
2022/04/13 02:33:25;;;;;;;11.63;6.37;;;;;;;6.78;82.17;100677.44;5038019;28;20052;-85
2022/04/13 02:35:50;;;;;;;12.93;6.77;;;;;;;6.75;82.39;100676.72;5037080;28;20036;-86
2022/04/13 02:38:19;;;;;;;12.90;6.53;;;;;;;6.86;81.59;100675.78;5053739;28;20033;-84
2022/04/13 02:40:44;;;;;;;12.15;6.40;;;;;;;6.83;81.50;100665.41;5036774;28;20275;-85
2022/04/13 02:43:10;;;;;;;13.93;6.57;;;;;;;6.86;81.22;100665.16;5054815;28;20033;-85
2022/04/13 02:45:36;;;;;;;;;;;;;;;6.89;80.95;100658.72;5038573;28;20044;-84
2022/04/13 02:48:01;;;;;;;;;;;;;;;6.89;80.64;100642.81;5039011;28;19920;-84
2022/04/13 02:50:27;;;;;;;11.07;6.40;;;;;;;6.80;80.97;100635.69;5039424;28;19967;-84
2022/04/13 02:52:54;;;;;;;11.63;6.77;;;;;;;6.97;79.96;100634.97;5039299;28;20036;-84
2022/04/13 02:55:20;;;;;;;13.23;6.55;;;;;;;6.89;80.36;100626.88;5037363;28;20041;-84
2022/04/13 02:57:46;;;;;;;13.70;7.05;;;;;;;6.87;80.73;100634.97;5052505;28;20013;-85
2022/04/13 03:00:12;;;;;;;10.30;6.00;;;;;;;6.86;80.58;100632.44;5052387;28;20033;-84
2022/04/13 03:02:41;;;;;;;11.68;7.28;;;;;;;6.84;80.85;100629.13;5035363;28;20036;-84
2022/04/13 03:05:07;;;;;;;16.70;7.95;;;;;;;6.85;80.26;100617.50;5035511;28;20033;-84
2022/04/13 03:07:33;;;;;;;13.10;6.63;;;;;;;6.84;80.33;100626.47;5053322;28;20109;-83
2022/04/13 03:09:59;;;;;;;11.52;6.97;;;;;;;6.88;80.15;100626.06;5034788;28;20056;-84
2022/04/13 03:12:26;;;;;;;13.70;7.10;;;;;;;6.89;80.01;100627.72;5035928;28;20087;-83
2022/04/13 03:14:52;;;;;;;14.13;6.57;;;;;;;6.89;79.87;100619.75;5035484;28;20021;-84
2022/04/13 03:17:17;;;;;;;10.10;6.57;;;;;;;6.80;80.59;100623.25;5035082;28;20121;-85
2022/04/13 03:19:43;;;;;;;11.20;7.43;;;;;;;6.72;80.97;100621.31;5035308;28;20036;-85
2022/04/13 03:22:08;;;;;;;11.67;6.57;;;;;;;6.72;81.45;100636.41;5034823;28;20087;-84
2022/04/13 03:24:36;;;;;;;14.97;6.70;;;;;;;6.74;81.71;100645.88;5051770;28;20553;-85
2022/04/13 03:27:02;;;;;;;12.70;7.50;;;;;;;6.69;82.24;100645.44;5051641;28;20036;-86
2022/04/13 03:29:28;;;;;;;16.15;7.75;;;;;;;6.63;82.74;100658.47;5051659;28;20025;-84
2022/04/13 03:31:53;;;;;;;12.55;6.97;;;;;;;6.61;82.82;100655.94;5051038;28;20068;-84
2022/04/13 03:34:21;;;;;;;14.40;7.93;;;;;;;6.65;82.85;100660.00;5034936;28;20512;-83
2022/04/13 03:36:50;;;;;;;13.95;6.65;;;;;;;6.62;83.04;100668.19;5034346;28;20129;-85
2022/04/13 03:39:16;;;;;;;12.23;7.68;;;;;;;6.56;83.28;100676.72;5026526;28;20172;-83
2022/04/13 03:41:42;;;;;;;14.43;8.68;;;;;;;6.58;83.75;100673.91;5051829;28;20028;-84
2022/04/13 03:44:08;;;;;;;11.52;7.22;;;;;;;6.57;84.08;100678.41;5034227;28;20025;-84
2022/04/13 03:46:34;;;;;;;16.52;7.78;;;;;;;6.54;84.47;100686.63;5034332;28;20048;-84
2022/04/13 03:48:59;;;;;;;11.67;7.43;;;;;;;6.44;85.45;100696.38;5050704;28;20037;-85
2022/04/13 03:51:25;;;;;;;11.27;7.53;;;;;;;6.45;86.26;100719.28;5030834;28;20037;-85
2022/04/13 03:53:50;;;;;;;12.18;7.25;;;;;;;6.37;86.58;100716.47;5048879;28;20035;-86
2022/04/13 03:56:16;;;;;;;13.83;7.50;;;;;;;6.40;86.80;100732.13;5034330;28;20037;-84
2022/04/13 03:58:42;;;;;;;12.05;7.75;;;;;;;6.42;86.56;100725.72;5034053;28;20025;-84
2022/04/13 04:01:08;;;;;;;13.27;7.47;;;;;;;6.47;86.05;100712.03;5033377;28;20128;-86
2022/04/13 04:03:34;;;;;;;14.43;7.03;;;;;;;6.46;85.60;100703.25;5033853;28;20033;-84
2022/04/13 04:06:00;;;;;;;18.05;7.40;;;;;;;6.52;85.50;100699.19;5033826;28;20503;-83
2022/04/13 04:08:26;;;;;;;14.67;7.87;;;;;;;6.50;85.95;100699.31;5050499;28;20104;-85
2022/04/13 04:10:52;;;;;;;15.02;7.97;;;;;;;6.58;85.73;100709.28;5051458;28;20037;-84
2022/04/13 04:13:18;;;;;;;15.07;8.43;;;;;;;6.50;85.85;100696.66;5053930;28;20021;-85
2022/04/13 04:15:43;;;;;;;16.55;7.90;;;;;;;6.52;85.88;100701.84;5052776;28;20032;-85
2022/04/13 04:18:09;;;;;;;18.27;7.40;;;;;;;6.52;86.17;100715.94;5032869;28;20030;-85
2022/04/13 04:20:34;;;;;;;17.03;8.10;;;;;;;6.55;85.94;100714.81;5030903;28;20036;-86
2022/04/13 04:23:00;;;;;;;14.65;7.82;;;;;;;6.52;86.43;100715.94;5051829;28;20032;-86
2022/04/13 04:25:26;;;;;;;14.25;8.45;;;;;;;6.52;86.68;100709.81;5034899;28;20416;-86
2022/04/13 04:27:51;;;;;;;17.85;8.88;;;;;;;6.57;86.43;100717.34;5051256;28;20104;-85
2022/04/13 04:30:16;;;;;;;15.10;8.47;;;;;;;6.55;86.49;100717.47;5034726;28;20033;-85
2022/04/13 04:32:42;;;;;;;11.10;6.53;;;;;;;6.60;86.80;100723.22;5051673;28;20048;-86
2022/04/13 04:35:08;;;;;;;13.63;7.60;;;;;;;6.59;86.36;100708.28;5034870;28;20033;-86
2022/04/13 04:37:34;;;;;;;12.25;7.32;;;;;;;6.60;86.30;100725.84;5035144;28;20031;-86
2022/04/13 04:40:00;;;;;;;17.10;7.63;;;;;;;6.63;85.77;100717.66;5034870;28;20033;-85
2022/04/13 04:42:27;;;;;;;20.80;8.50;;;;;;;6.66;85.18;100705.91;5034351;28;20602;-84
2022/04/13 04:44:59;;;;;;;19.40;8.65;;;;;;;6.68;85.10;100703.97;5035384;28;20078;-87
2022/04/13 04:47:25;;;;;;;14.85;8.00;;;;;;;6.78;84.27;100694.19;5050959;28;20033;-86
2022/04/13 04:49:50;;;;;;;16.67;8.55;;;;;;;6.79;83.42;100689.72;5034858;28;20029;-85
2022/04/13 04:52:16;;;;;;;17.85;9.20;;;;;;;6.83;82.73;100675.19;5034093;28;20514;-85
2022/04/13 04:54:41;;;;;;;14.17;8.20;;;;;;;6.88;81.77;100652.59;5034011;28;20036;-84
2022/04/13 04:57:08;;;;;;;14.83;8.43;;;;;;;6.93;81.32;100645.03;5050550;28;20572;-85
2022/04/13 04:59:34;;;;;;;16.02;8.10;;;;;;;6.89;82.17;100682.63;5050438;28;20024;-85
2022/04/13 05:01:59;;;;;;;19.35;7.97;;;;;;;6.92;81.94;100685.81;5050142;28;20504;-85
2022/04/13 05:04:25;;;;;;;18.37;7.77;;;;;;;6.90;81.98;100676.31;5033504;28;20119;-86
2022/04/13 05:06:50;;;;;;;11.37;8.00;;;;;;;6.97;82.91;100714.59;5033617;28;20405;-85
2022/04/13 05:09:17;;;;;;;14.43;7.93;;;;;;;6.97;83.31;100730.50;5050259;28;20086;-85
2022/04/13 05:11:43;;;;;;;14.95;8.80;;;;;;;6.96;82.43;100707.63;5033607;28;20037;-87
2022/04/13 05:14:09;;;;;;;13.05;7.22;;;;;;;7.06;82.74;100729.69;5033547;28;20029;-85
2022/04/13 05:16:34;;;;;;;14.77;8.60;;;;;;;7.09;82.28;100721.41;5033478;28;20171;-85
2022/04/13 05:19:00;;;;;;;17.77;9.15;;;;;;;7.02;82.10;100699.06;5033985;28;20039;-84
2022/04/13 05:21:25;;;;;;;15.35;8.02;;;;;;;7.00;82.73;100708.16;5051181;28;20106;-85
2022/04/13 05:23:51;;;;;;;13.02;8.60;;;;;;;6.99;82.49;100707.31;5033159;28;20040;-87
2022/04/13 05:26:18;;;;;;;17.80;8.20;;;;;;;7.06;82.90;100736.81;5032549;28;20028;-84
2022/04/13 05:28:44;;;;;;;19.23;8.55;;;;;;;7.16;82.49;100741.16;5031425;28;20051;-84
2022/04/13 05:31:10;;;;;;;;;;;;;;;7.24;81.56;100713.06;5049134;28;20033;-83
2022/04/13 05:33:35;;;;;;;;;;;;;;;7.26;81.05;100700.44;5032133;28;20451;-82
2022/04/13 05:36:00;;;;;;;18.80;8.67;;;;;;;7.38;80.93;100713.44;5049390;28;19912;-84
2022/04/13 05:38:26;;;;;;;18.20;8.87;;;;;;;7.41;80.89;100714.97;5031835;28;20029;-82
2022/04/13 05:40:51;;;;;;;15.20;8.07;;;;;;;7.45;79.66;100687.16;5045899;28;20068;-84
2022/04/13 05:43:16;;;;;;;11.80;7.90;;;;;;;7.53;79.32;100697.88;5031896;28;20111;-84
2022/04/13 05:45:42;;;;;;;13.97;8.27;;;;;;;7.76;82.16;100795.88;5046689;28;20036;-82
2022/04/13 05:48:07;;;;;;;17.90;9.97;;;;;;;7.83;79.88;100727.88;5030431;28;20474;-79
2022/04/13 05:50:33;;;;;;;16.90;8.47;;;;;;;7.69;78.90;100670.69;5051794;28;20039;-83
2022/04/13 05:52:58;;;;;;;18.47;9.07;;;;;;;7.69;79.01;100683.16;5053386;28;20051;-85
2022/04/13 05:55:23;;;;;;;15.30;8.27;;;;;;;7.70;78.84;100691.00;5033733;28;20166;-86
2022/04/13 05:57:49;;;;;;;21.30;9.15;;;;;;;7.61;79.02;100679.41;5049940;28;20154;-83
2022/04/13 06:00:15;;;;;;;18.93;8.73;;;;;;;7.91;78.58;100721.81;5032849;28;20047;-84
2022/04/13 06:02:41;;;;;;;19.60;9.77;;;;;;;7.78;78.21;100692.91;5032881;28;20029;-85
2022/04/13 06:05:08;;;;;;;15.77;8.70;;;;;;;7.87;77.95;100713.31;5049720;28;20035;-85
2022/04/13 06:07:34;;;;;;;16.75;10.02;;;;;;;7.95;76.83;100700.13;5032849;28;20044;-83
2022/04/13 06:10:01;;;;;;;18.08;9.02;;;;;;;8.11;76.43;100698.66;5049573;28;20040;-84
2022/04/13 06:12:27;;;;;;;15.80;8.52;;;;;;;8.24;76.14;100699.13;5049950;28;20028;-87
2022/04/13 06:15:03;;;;;;;14.38;8.75;;;;;;;8.22;75.39;100658.56;5049481;28;20572;-84
2022/04/13 06:17:28;;;;;;;16.85;9.43;;;;;;;8.30;74.41;100661.31;5032836;28;20043;-85
2022/04/13 06:19:54;;;;;;;18.17;9.63;;;;;;;8.23;74.40;100633.63;5032828;28;20447;-84
2022/04/13 06:22:19;;;;;;;14.97;8.83;;;;;;;8.23;74.53;100661.06;5033109;28;20139;-85
2022/04/13 06:24:44;;;;;;;16.47;8.97;;;;;;;8.41;74.22;100684.25;5033434;28;20113;-84
2022/04/13 06:27:10;;;;;;;17.20;8.00;;;;;;;8.41;73.96;100679.75;5033053;28;20060;-85
2022/04/13 06:29:35;;;;;;;19.43;8.10;;;;;;;8.39;73.61;100646.28;5033451;28;20118;-84
2022/04/13 06:32:00;;;;;;;14.20;7.57;;;;;;;8.51;73.38;100668.22;5051125;28;20060;-85
2022/04/13 06:34:26;;;;;;;16.20;9.93;;;;;;;8.52;72.90;100659.22;5054700;28;20885;-86
2022/04/13 06:36:51;;;;;;;22.63;9.30;;;;;;;8.55;73.12;100664.25;5058093;28;20851;-86
2022/04/13 06:39:16;;;;;;;16.57;9.07;;;;;;;8.59;73.22;100681.56;5048537;28;20086;-85
2022/04/13 06:41:42;;;;;;;17.87;8.67;;;;;;;8.66;73.74;100704.78;5028317;28;20048;-86
2022/04/13 06:44:07;;;;;;;15.77;8.30;;;;;;;8.86;72.57;100713.47;5031962;28;20021;-87
2022/04/13 06:46:36;;;;;;;18.87;9.03;;;;;;;8.76;72.46;100672.78;5034178;28;20043;-86
2022/04/13 06:49:02;;;;;;;16.38;10.13;;;;;;;8.66;72.87;100679.97;5052006;28;20021;-85
2022/04/13 06:51:27;;;;;;;18.63;9.10;;;;;;;8.79;72.86;100693.75;5034571;28;20481;-86
2022/04/13 06:53:52;;;;;;;17.87;8.50;;;;;;;8.90;73.38;100721.13;5035452;28;20117;-84
2022/04/13 06:56:18;;;;;;;16.30;8.83;;;;;;;8.79;73.09;100715.06;5052449;28;20469;-84
2022/04/13 06:58:45;;;;;;;13.35;8.43;;;;;;;8.86;73.18;100720.63;5051481;28;20029;-85
2022/04/13 07:01:11;;;;;;;20.33;9.93;;;;;;;8.76;73.14;100683.44;5035705;28;20132;-84
2022/04/13 07:03:36;;;;;;;17.63;8.80;;;;;;;8.83;73.74;100719.09;5036940;28;20045;-84
2022/04/13 07:06:03;;;;;;;15.40;7.97;;;;;;;9.10;73.60;100770.59;5052730;28;20386;-86
2022/04/13 07:08:28;;;;;;;15.90;8.68;;;;;;;9.26;72.93;100760.09;5036645;28;20477;-86
2022/04/13 07:10:53;;;;;;;13.53;9.03;;;;;;;9.11;72.48;100715.50;5052491;28;20040;-85
2022/04/13 07:13:19;;;;;;;20.23;7.80;;;;;;;9.18;72.73;100725.41;5053780;28;20064;-84
2022/04/13 07:15:45;;;;;;;13.95;8.82;;;;;;;9.29;72.96;100759.81;5036638;28;20532;-85
2022/04/13 07:18:10;;;;;;;12.35;8.50;;;;;;;9.56;72.54;100776.66;5054082;28;20029;-85
2022/04/13 07:20:36;;;;;;;14.23;8.23;;;;;;;9.34;71.78;100711.38;5036043;28;20063;-86
2022/04/13 07:23:01;;;;;;;17.37;10.60;;;;;;;9.51;71.60;100741.63;5052528;28;20268;-83
2022/04/13 07:25:31;;;;;;;14.90;8.63;;;;;;;9.97;71.03;100794.75;5053271;28;20033;-84
2022/04/13 07:27:56;;;;;;;19.55;10.23;;;;;;;10.09;69.78;100733.00;5053026;28;20044;-86
2022/04/13 07:30:21;;;;;;;14.80;8.33;;;;;;;10.19;68.57;100692.00;5034988;28;20032;-82
2022/04/13 07:32:51;;;;;;;14.53;8.83;;;;;;;10.46;67.99;100713.13;5034156;28;20044;-80
2022/04/13 07:35:17;;;;;;;17.48;8.73;;;;;;;10.42;67.17;100666.44;5042698;28;20048;-79
2022/04/13 07:37:43;;;;;;;14.23;8.50;;;;;;;10.68;67.12;100717.03;5032363;28;20021;-78
2022/04/13 07:40:13;;;;;;;18.13;8.85;;;;;;;10.85;66.84;100715.22;5050667;28;20120;-80
2022/04/13 07:42:39;;;;;;;18.38;8.90;;;;;;;10.92;66.04;100688.69;5034727;28;20044;-83
2022/04/13 07:45:06;;;;;;;15.23;8.48;;;;;;;11.40;65.08;100703.88;5051580;28;20028;-81
2022/04/13 07:47:32;;;;;;;13.85;8.30;;;;;;;11.35;64.19;100658.09;5052772;28;20105;-80
2022/04/13 07:49:58;;;;;;;16.90;8.47;;;;;;;11.76;62.29;100609.03;5051048;28;20028;-81
2022/04/13 07:52:23;;;;;;;14.57;8.60;;;;;;;11.81;62.49;100641.44;5051815;28;20040;-82
2022/04/13 07:54:49;;;;;;;14.67;8.37;;;;;;;11.89;63.38;100683.41;5051268;28;20029;-81
2022/04/13 07:57:15;;;;;;;13.97;8.47;;;;;;;11.59;62.84;100570.81;5050472;28;20060;-82
2022/04/13 07:59:41;;;;;;;15.30;8.80;;;;;;;11.69;63.64;100645.50;5051486;28;20037;-80
2022/04/13 08:02:07;;;;;;;14.80;8.40;;;;;;;11.82;63.96;100681.41;5050603;28;20122;-78
2022/04/13 08:04:36;;;;;;;15.50;8.68;;;;;;;12.12;64.25;100751.22;5034265;28;20029;-83
2022/04/13 08:07:02;;;;;;;14.43;8.40;;;;;;;12.64;63.26;100771.22;5050596;28;20036;-79
2022/04/13 08:09:27;;;;;;;17.90;8.43;;;;;;;12.28;62.30;100663.84;5034289;28;20032;-84
2022/04/13 08:11:53;;;;;;;16.70;8.13;;;;;;;12.15;62.27;100642.97;5050547;28;20041;-79
2022/04/13 08:14:22;;;;;;;13.13;7.63;;;;;;;12.12;61.51;100601.34;5050855;28;20432;-83
2022/04/13 08:16:48;;;;;;;23.25;10.32;;;;;;;11.98;62.09;100604.75;5034089;28;20110;-79
2022/04/13 08:19:13;;;;;;;17.75;8.75;;;;;;;11.82;62.91;100619.88;5033283;28;20115;-82
2022/04/13 08:21:39;;;;;;;23.70;8.63;;;;;;;12.09;62.58;100670.44;5032840;28;20481;-84
2022/04/13 08:24:05;;;;;;;15.10;8.63;;;;;;;11.92;63.25;100653.63;5050400;28;20086;-83
2022/04/13 08:26:31;;;;;;;15.52;8.75;;;;;;;12.17;63.68;100730.09;5051895;28;20132;-82
2022/04/13 08:28:56;;;;;;;15.57;7.90;;;;;;;11.95;64.18;100707.63;5051712;28;20285;-83
2022/04/13 08:31:22;;;;;;;14.83;8.30;;;;;;;12.27;62.76;100726.38;5050480;28;20132;-79
2022/04/13 08:33:47;;;;;;;15.47;8.43;;;;;;;12.22;61.73;100644.78;5033779;28;20033;-79
2022/04/13 08:36:13;;;;;;;11.97;7.57;;;;;;;12.23;61.58;100643.78;5034078;28;20025;-82
2022/04/13 08:38:39;;;;;;;14.23;7.40;;;;;;;12.40;61.31;100665.09;5032900;28;20764;-83
2022/04/13 08:41:13;;;;;;;13.53;7.53;;;;;;;12.25;62.60;100703.31;5047190;28;20053;-81
2022/04/13 08:43:51;;;;;;;19.77;8.25;;;;;;;12.24;62.04;100690.09;5047971;28;20036;-83
2022/04/13 08:46:27;;;;;;;14.50;7.50;;;;;;;12.89;60.57;100737.09;5025100;28;20064;-79
2022/04/13 08:48:56;;;;;;;13.00;8.35;;;;;;;12.85;60.65;100725.06;5030914;28;20119;-83
2022/04/13 08:51:23;;;;;;;10.25;6.78;;;;;;;13.46;60.35;100776.06;5048987;28;20148;-81
2022/04/13 08:54:02;;;;;;;13.55;8.02;;;;;;;14.00;58.25;100708.81;5048612;28;20041;-82
2022/04/13 08:56:34;;;;;;;12.43;8.15;;;;;;;14.16;58.07;100739.97;5043979;28;20037;-82
2022/04/13 08:59:17;;;;;;;13.77;7.38;;;;;;;14.73;57.02;100741.97;5031726;28;20064;-84
2022/04/13 09:02:03;;;;;;;13.90;8.15;;;;;;;14.41;56.67;100651.06;5030840;28;20041;-81
2022/04/13 09:04:35;;;;;;;12.23;7.72;;;;;;;14.67;55.87;100643.28;5061249;28;20048;-82
2022/04/13 09:07:02;;;;;;;23.45;9.07;;;;;;;14.03;57.23;100611.78;5047707;28;20047;-81
2022/04/13 09:09:37;;;;;;;14.57;8.32;;;;;;;14.90;56.80;100739.84;5049098;28;20032;-82
2022/04/13 09:12:03;;;;;;;18.40;8.50;;;;;;;14.98;55.62;100674.38;5046701;28;20108;-79
2022/04/13 09:14:29;;;;;;;12.27;8.18;;;;;;;14.35;56.22;100572.06;5031159;28;20031;-81
2022/04/13 09:16:56;;;;;;;16.83;8.65;;;;;;;14.53;56.56;100650.34;5048021;28;20460;-84
2022/04/13 09:19:24;;;;;;;13.02;8.25;;;;;;;14.45;57.09;100657.72;5031758;28;20041;-79
2022/04/13 09:21:51;;;;;;;12.25;8.20;;;;;;;14.45;57.97;100714.13;5031033;28;20037;-83
2022/04/13 09:24:18;;;;;;;15.88;9.32;;;;;;;15.30;56.56;100785.13;5040163;28;20017;-80
2022/04/13 09:26:45;;;;;;;15.75;10.32;;;;;;;15.32;54.97;100649.44;5030990;28;20037;-82
2022/04/13 09:29:12;;;;;;;13.45;8.60;;;;;;;15.53;55.44;100728.44;5048565;28;20053;-79
2022/04/13 09:31:38;;;;;;;16.60;8.17;;;;;;;15.06;56.20;100658.13;5047433;28;20041;-80
2022/04/13 09:34:03;;;;;;;15.95;8.38;;;;;;;15.69;55.62;100746.16;5031218;28;20059;-81
2022/04/13 09:36:29;;;;;;;14.00;9.63;;;;;;;16.13;53.93;100712.66;5048819;28;20033;-84
2022/04/13 09:38:56;;;;;;;15.65;9.75;;;;;;;16.56;52.91;100715.97;5048297;28;20021;-84
2022/04/13 09:41:33;;;;;;;13.75;9.32;;;;;;;16.21;53.61;100658.63;5047128;28;20079;-80
2022/04/13 09:43:58;;;;;;;16.48;8.40;;;;;;;16.67;52.97;100711.84;5045442;28;20068;-84
2022/04/13 09:46:28;;;;;;;15.17;8.30;;;;;;;16.90;52.04;100670.22;5030529;28;20025;-82
2022/04/13 09:49:14;;;;;;;16.13;9.43;;;;;;;16.66;51.62;100623.91;5047822;28;20083;-80
2022/04/13 09:51:42;;;;;;;14.35;8.48;;;;;;;16.37;54.29;100714.03;5030897;28;20032;-81
2022/04/13 09:54:11;;;;;;;13.55;8.77;;;;;;;16.85;52.81;100673.53;5048586;28;20091;-83
2022/04/13 09:56:38;;;;;;;14.18;8.88;;;;;;;16.35;53.24;100616.41;5048759;28;20128;-78
2022/04/13 09:59:05;;;;;;;16.60;8.60;;;;;;;16.95;53.97;100805.25;5028881;28;20021;-83
2022/04/13 10:01:34;;;;;;;17.33;8.43;;;;;;;16.76;53.29;100696.31;5032653;28;20024;-83
2022/04/13 10:04:00;;;;;;;14.65;8.68;;;;;;;16.80;54.07;100776.59;5050087;28;20555;-81
2022/04/13 10:06:33;;;;;;;13.48;8.25;;;;;;;17.49;52.81;100817.84;5033108;28;20033;-84
2022/04/13 10:09:08;;;;;;;16.38;8.82;;;;;;;17.39;51.87;100693.25;5031575;28;20041;-83
2022/04/13 10:11:35;;;;;;;16.53;9.27;;;;;;;17.82;51.39;100742.25;5053485;28;20048;-83
2022/04/13 10:14:06;;;;;;;14.52;9.02;;;;;;;18.45;50.93;100763.28;5029818;28;20492;-82
2022/04/13 10:16:34;;;;;;;16.40;8.55;;;;;;;18.06;49.86;100630.00;5029175;28;20036;-79
2022/04/13 10:19:04;;;;;;;15.95;8.85;;;;;;;17.65;49.68;100547.47;5047221;28;20021;-83
2022/04/13 10:21:33;;;;;;;15.57;9.07;;;;;;;17.62;49.97;100528.97;5049240;28;20047;-83
2022/04/13 10:23:58;;;;;;;19.90;10.25;;;;;;;17.95;49.84;100584.75;5046505;28;20017;-82
2022/04/13 10:26:24;;;;;;;15.87;9.60;;;;;;;18.04;49.51;100588.84;5049173;28;20493;-83
2022/04/13 10:28:49;;;;;;;16.03;8.77;;;;;;;18.28;50.25;100697.22;5032311;28;20068;-83
2022/04/13 10:31:14;;;;;;;15.77;8.93;;;;;;;18.84;49.82;100756.03;5048892;28;20403;-81
2022/04/13 10:33:49;;;;;;;20.90;9.80;;;;;;;18.86;48.36;100610.59;5050529;28;20032;-83
2022/04/13 10:36:16;;;;;;;15.68;9.75;;;;;;;19.29;48.43;100711.81;5040943;28;20021;-83
2022/04/13 10:38:44;;;;;;;15.00;8.85;;;;;;;19.68;47.87;100696.28;5032481;28;20032;-80
2022/04/13 10:41:22;;;;;;;13.70;8.75;;;;;;;19.48;49.48;100750.59;5050214;28;20040;-84
2022/04/13 10:43:52;;;;;;;17.73;9.50;;;;;;;19.71;48.83;100756.25;5049205;28;20041;-84
2022/04/13 10:46:20;;;;;;;16.92;9.57;;;;;;;19.55;48.11;100653.91;5049032;28;20117;-83
2022/04/13 10:48:50;;;;;;;14.98;9.57;;;;;;;18.78;50.16;100632.53;5032577;28;20033;-82
2022/04/13 10:51:22;;;;;;;14.60;9.77;;;;;;;18.83;50.71;100704.91;5023685;28;20061;-84
2022/04/13 10:54:14;;;;;;;17.92;9.50;;;;;;;18.08;51.67;100617.09;5033065;28;20072;-82
2022/04/13 10:56:44;;;;;;;15.13;9.23;;;;;;;17.77;54.10;100715.03;5029117;28;20037;-84
2022/04/13 10:59:27;;;;;;;19.45;9.82;;;;;;;18.92;51.84;100801.78;5033004;28;20665;-83
2022/04/13 11:01:59;;;;;;;15.93;10.27;;;;;;;17.88;51.67;100568.56;5032466;28;20033;-84
2022/04/13 11:04:27;;;;;;;16.65;9.27;;;;;;;17.72;54.64;100758.00;5033228;28;20045;-83
2022/04/13 11:06:53;;;;;;;20.10;11.77;;;;;;;17.71;53.77;100676.19;5032957;28;20028;-82
2022/04/13 11:09:28;;;;;;;;;;;;;;;18.05;54.25;100800.38;5051554;28;20119;-85
2022/04/13 11:11:56;;;;;;;17.33;10.10;;;;;;;18.48;52.68;100795.28;5032420;28;19912;-81
2022/04/13 11:14:24;;;;;;;19.05;10.73;;;;;;;18.02;53.46;100709.78;5032987;28;20765;-83
2022/04/13 11:17:15;;;;;;;15.38;9.48;;;;;;;18.45;53.50;100773.25;5049922;28;20504;-83
2022/04/13 11:19:41;;;;;;;15.13;9.85;;;;;;;19.52;51.91;100888.03;5021945;28;20053;-82
2022/04/13 11:22:07;;;;;;;14.40;9.95;;;;;;;18.91;51.87;100732.50;5049379;28;20032;-79
2022/04/13 11:24:53;;;;;;;15.00;10.00;;;;;;;18.73;52.30;100732.34;5050730;28;20451;-81